Castle Rock, CO

6:24 AM MDT on July 24, 2016 (GMT -0600)
red Hawk ridge golf course | | Change Station

Elev 6388 ft 39.39 °N, 104.89 °W | Updated 7 seconds ago

Mostly Cloudy
Mostly Cloudy
68.4 °F
Feels Like 68.4 °F
N
0.0
Wind Variable Wind from SW
Gusts 0.0 mph

Today
High -- | Low -- °F
--% Chance of Precip.
Yesterday
High -- | Low -- °F
Precip. -- in
Pressure 29.95 in
Visibility 10.0 miles
Clouds Scattered Clouds 8000 ft
Scattered Clouds 13000 ft
Mostly Cloudy 22000 ft
Dew Point 49 °F
Humidity 49%
Rainfall 0.00 in
Snow Depth Not available.
5:52 AM 8:18 PM
Waning Gibbous, 76% visible
METAR KAPA 241153Z 21007KT 10SM SCT080 SCT130 BKN220 21/08 A3021 RMK AO2 SLP142 VIRGA W-N T02110078 10222 20194 53006
Pressure 29.95 in
Visibility 10.0 miles
Clouds Scattered Clouds 8000 ft
Scattered Clouds 13000 ft
Mostly Cloudy 22000 ft
Dew Point 49 °F
Humidity 49%
Rainfall 0.00 in
Snow Depth Not available.
5:52 AM 8:18 PM
Waning Gibbous, 76% visible
METAR KAPA 241153Z 21007KT 10SM SCT080 SCT130 BKN220 21/08 A3021 RMK AO2 SLP142 VIRGA W-N T02110078 10222 20194 53006

10-Day Weather Forecast

Almanac

Astronomy

Jul. 24, 2016 Rise Set
Actual Time
Civil Twilight
Nautical Twilight
Astronomical Twilight
Moon
Length of Visible Light
Length of Day
Tomorrow will be .
, % of the Moon is Illuminated

Today's Extremes

State Highs State Lows

Community

WunderPhotos

Upload Photos

1,927,053 photos uploaded!

WunderBlog® & News

Nearby

Air Quality

  Air Quality AQ Index Pollutant
Not available.

Snow Depth

Station Depth Elevation

Earthquake Activity

City Distance Mag. Time & Date
Minimum magnitude displayed is 2.5.

Coastal Water Temperatures

Place Temperature

Stations

Nearby Weather Stations

Station Location Temp. Windchill Dew Point Humidity Wind Precip. Elev Updated Type
                   

Watches & Warnings

There are currently no watches in effect.